Time;durP1;ratioP1;P1;durP2;ratioP2;P2;SDS_P1;SDS_P2;PMS_P1;PMS_P2;Temp;Humidity;BMP_temperature;BMP_pressure;BME280_temperature;BME280_humidity;BME280_pressure;Samples;Min_cycle;Max_cycle;Signal;HPM_P1;HPM_P2
2021/04/24 00:01:52;;;;;;;;;;;;;;;21.44;31.22;98407.28;5087644;28;1021;-87
2021/04/24 00:04:17;;;;;;;;;;;;;;;21.48;31.16;98403.16;5087206;28;875;-87
2021/04/24 00:06:44;;;;;;;;;;;;;;;21.43;31.23;98400.03;5071355;28;1906;-87
2021/04/24 00:09:09;;;;;;;;;;;;;;;21.76;31.43;98401.78;5087436;28;995;-87
2021/04/24 00:11:35;;;;;;;;;;;;;;;22.14;31.06;98392.09;5087836;28;883;-87
2021/04/24 00:14:00;;;;;;;;;;;;;;;22.51;30.41;98405.00;5086835;28;610;-88
2021/04/24 00:16:26;;;;;;;;;;;;;;;21.91;30.79;98407.13;5087282;28;872;-87
2021/04/24 00:18:51;;;;;;;;;;;;;;;21.79;30.93;98400.88;5071115;28;1189;-87
2021/04/24 00:21:17;;;;;;;;;;;;;;;21.65;30.87;98406.84;5087979;28;1049;-87
2021/04/24 00:23:42;;;;;;;;;;;;;;;21.67;31.15;98415.72;5070773;28;1335;-86
2021/04/24 00:26:08;;;;;;;;;;;;;;;21.63;31.15;98409.31;5086860;28;1913;-87
2021/04/24 00:28:33;;;;;;;;;;;;;;;21.82;31.06;98416.22;5071175;28;1159;-87
2021/04/24 00:30:59;;;;;;;;;;;;;;;21.64;31.26;98419.41;5087453;28;860;-87
2021/04/24 00:33:24;;;;;;;;;;;;;;;21.57;31.30;98405.41;5087280;28;987;-87
2021/04/24 00:35:50;;;;;;;;;;;;;;;21.65;31.35;98418.16;5087595;28;927;-86
2021/04/24 00:38:16;;;;;;;;;;;;;;;21.67;31.12;98415.72;5070455;28;1192;-87
2021/04/24 00:40:48;;;;;;;;;;;;;;;21.60;31.35;98413.00;5087244;28;671;-86
2021/04/24 00:43:13;;;;;;;;;;;;;;;21.59;31.26;98425.56;5087396;28;654;-87
2021/04/24 00:45:48;;;;;;;;;;;;;;;21.61;31.42;98423.13;5086832;28;1905;-87
2021/04/24 00:48:17;;;;;;;;;;;;;;;21.63;30.86;98428.34;5070092;28;1284;-87
2021/04/24 00:50:42;;;;;;;;;;;;;;;21.54;31.04;98428.91;5087613;28;1171;-87
2021/04/24 00:53:08;;;;;;;;;;;;;;;21.52;31.29;98431.41;5086183;28;1178;-87
2021/04/24 00:55:34;;;;;;;;;;;;;;;21.50;31.01;98442.34;5087074;28;685;-87
2021/04/24 00:58:00;;;;;;;;;;;;;;;21.44;31.41;98435.59;5087341;28;1373;-87
2021/04/24 01:00:25;;;;;;;;;;;;;;;21.47;31.16;98437.56;5086960;28;971;-86
2021/04/24 01:02:51;;;;;;;;;;;;;;;21.45;31.24;98437.19;5086703;28;955;-87
2021/04/24 01:05:36;;;;;;;;;;;;;;;21.49;31.12;98438.72;5086404;28;1957;-86
2021/04/24 01:08:01;;;;;;;;;;;;;;;21.47;31.23;98440.38;5086523;28;797;-87
2021/04/24 01:10:29;;;;;;;;;;;;;;;21.38;31.27;98443.78;5086791;28;712;-87
2021/04/24 01:12:54;;;;;;;;;;;;;;;21.49;30.95;98443.56;5070365;28;1316;-87
2021/04/24 01:15:20;;;;;;;;;;;;;;;21.57;30.76;98439.38;5085060;28;1059;-87
2021/04/24 01:17:45;;;;;;;;;;;;;;;21.96;31.23;98437.78;5086930;28;861;-87
2021/04/24 01:20:11;;;;;;;;;;;;;;;22.25;31.05;98444.47;5086870;28;946;-87
2021/04/24 01:22:37;;;;;;;;;;;;;;;22.38;30.30;98440.94;5070672;28;1227;-87
2021/04/24 01:25:05;;;;;;;;;;;;;;;21.85;30.75;98438.81;5070557;28;1989;-87
2021/04/24 01:27:31;;;;;;;;;;;;;;;21.72;30.86;98440.69;5087433;28;1197;-86
2021/04/24 01:29:56;;;;;;;;;;;;;;;21.58;30.97;98446.63;5069318;28;1319;-87
2021/04/24 01:32:22;;;;;;;;;;;;;;;21.54;31.40;98445.91;5069626;28;1248;-87
2021/04/24 01:34:47;;;;;;;;;;;;;;;21.49;31.23;98443.56;5086532;28;952;-87
2021/04/24 01:37:13;;;;;;;;;;;;;;;21.44;31.57;98442.03;5069550;28;1111;-87
2021/04/24 01:39:38;;;;;;;;;;;;;;;21.45;31.40;98437.19;5086727;28;734;-87
2021/04/24 01:42:04;;;;;;;;;;;;;;;21.51;31.38;98441.13;5086012;28;644;-86
2021/04/24 01:44:29;;;;;;;;;;;;;;;21.59;31.30;98437.69;5086099;28;726;-87
2021/04/24 01:46:55;;;;;;;;;;;;;;;21.52;31.59;98437.84;5085789;28;1952;-87
2021/04/24 01:49:20;;;;;;;;;;;;;;;21.35;32.03;98441.00;5085154;28;907;-86
2021/04/24 01:51:46;;;;;;;;;;;;;;;21.64;31.15;98444.91;5086331;28;991;-86
2021/04/24 01:54:11;;;;;;;;;;;;;;;21.73;30.97;98441.50;5086703;28;855;-87
2021/04/24 01:57:03;;;;;;;;;;;;;;;21.67;31.38;98438.38;5069450;28;1169;-87
2021/04/24 01:59:29;;;;;;;;;;;;;;;21.56;31.18;98443.47;5084945;28;1015;-87
2021/04/24 02:01:55;;;;;;;;;;;;;;;21.53;31.45;98438.66;5085887;28;956;-87
2021/04/24 02:04:21;;;;;;;;;;;;;;;21.58;31.35;98443.81;5069008;28;1219;-87
2021/04/24 02:06:46;;;;;;;;;;;;;;;21.57;31.46;98448.69;5090071;28;1910;-87
2021/04/24 02:09:12;;;;;;;;;;;;;;;21.46;31.54;98450.13;5089900;28;913;-87
2021/04/24 02:11:58;;;;;;;;;;;;;;;21.48;31.44;98445.63;5089997;28;1270;-87
2021/04/24 02:14:30;;;;;;;;;;;;;;;21.61;31.07;98442.97;5089985;28;1048;-87
2021/04/24 02:16:55;;;;;;;;;;;;;;;21.59;31.29;98442.56;5090040;28;890;-88
2021/04/24 02:19:21;;;;;;;;;;;;;;;21.55;31.11;98436.16;5090006;28;1291;-86
2021/04/24 02:21:46;;;;;;;;;;;;;;;21.49;31.41;98438.72;5073872;28;1211;-86
2021/04/24 02:24:12;;;;;;;;;;;;;;;21.54;31.32;98446.69;5073142;28;1254;-87
2021/04/24 02:26:37;;;;;;;;;;;;;;;21.59;30.97;98451.06;5090371;28;1947;-87
2021/04/24 02:29:03;;;;;;;;;;;;;;;21.47;31.16;98451.72;5073942;28;1173;-87
2021/04/24 02:31:28;;;;;;;;;;;;;;;21.53;30.93;98444.31;5089988;28;926;-87
2021/04/24 02:33:54;;;;;;;;;;;;;;;21.54;30.83;98448.75;5073192;28;1185;-86
2021/04/24 02:36:19;;;;;;;;;;;;;;;21.56;31.04;98437.78;5088791;28;655;-87
2021/04/24 02:38:49;;;;;;;;;;;;;;;21.46;31.16;98433.94;5088974;28;841;-87
2021/04/24 02:41:14;;;;;;;;;;;;;;;21.58;30.85;98446.63;5072926;28;1206;-87
2021/04/24 02:43:39;;;;;;;;;;;;;;;21.56;30.79;98443.47;5088650;28;1020;-86
2021/04/24 02:46:07;;;;;;;;;;;;;;;21.33;31.08;98436.59;5088229;28;1909;-86
2021/04/24 02:48:32;;;;;;;;;;;;;;;21.41;31.12;98442.13;5087934;28;1028;-86
2021/04/24 02:50:58;;;;;;;;;;;;;;;21.39;31.16;98436.09;5072160;28;1294;-87
2021/04/24 02:53:23;;;;;;;;;;;;;;;21.50;30.73;98436.69;5088724;28;1193;-86
2021/04/24 02:55:49;;;;;;;;;;;;;;;21.60;30.58;98444.16;5088599;28;851;-87
2021/04/24 02:58:15;;;;;;;;;;;;;;;21.56;30.66;98449.13;5089045;28;866;-87
2021/04/24 03:00:40;;;;;;;;;;;;;;;21.51;30.67;98449.63;5087330;28;1164;-87
2021/04/24 03:03:09;;;;;;;;;;;;;;;21.43;30.92;98448.16;5071413;28;1150;-86
2021/04/24 03:05:35;;;;;;;;;;;;;;;21.45;30.73;98432.34;5088305;28;1973;-87
2021/04/24 03:08:03;;;;;;;;;;;;;;;21.44;30.77;98442.03;5088323;28;634;-87
2021/04/24 03:10:29;;;;;;;;;;;;;;;21.38;30.83;98442.97;5088407;28;1289;-87
2021/04/24 03:12:54;;;;;;;;;;;;;;;21.41;30.78;98442.94;5087979;28;1010;-87
2021/04/24 03:15:20;;;;;;;;;;;;;;;21.78;30.91;98444.63;5070936;28;1261;-87
2021/04/24 03:17:45;;;;;;;;;;;;;;;21.90;31.26;98448.03;5088437;28;1078;-87
2021/04/24 03:20:12;;;;;;;;;;;;;;;22.23;30.95;98446.16;5088532;28;694;-86
2021/04/24 03:22:38;;;;;;;;;;;;;;;22.14;30.39;98446.75;5087988;28;1185;-86
2021/04/24 03:25:04;;;;;;;;;;;;;;;21.85;30.85;98446.50;5072544;28;1162;-87
2021/04/24 03:27:29;;;;;;;;;;;;;;;21.66;30.73;98452.94;5071722;28;1982;-87
2021/04/24 03:29:55;;;;;;;;;;;;;;;21.54;30.73;98458.03;5088548;28;1368;-87
2021/04/24 03:32:20;;;;;;;;;;;;;;;21.65;31.16;98463.47;4542839;28;15077736;-86
2021/04/24 03:34:46;;;;;;;;;;;;;;;21.58;31.35;98463.63;5073073;28;1231;-88
2021/04/24 03:37:11;;;;;;;;;;;;;;;21.53;31.27;98472.63;5073031;28;1139;-87
2021/04/24 03:39:37;;;;;;;;;;;;;;;21.56;31.38;98477.44;5089437;28;821;-88
2021/04/24 03:42:03;;;;;;;;;;;;;;;21.53;31.28;98476.25;5087931;28;945;-85
2021/04/24 03:44:29;;;;;;;;;;;;;;;21.46;31.61;98484.09;5089095;28;1206;-88
2021/04/24 03:46:55;;;;;;;;;;;;;;;21.63;31.14;98487.81;5088795;28;1894;-87
2021/04/24 03:49:20;;;;;;;;;;;;;;;21.56;31.40;98494.44;5089614;28;864;-88
2021/04/24 03:51:45;;;;;;;;;;;;;;;21.55;31.50;98490.78;5089262;28;1223;-87
2021/04/24 03:54:11;;;;;;;;;;;;;;;21.62;31.18;98498.34;5073705;28;1176;-87
2021/04/24 03:56:36;;;;;;;;;;;;;;;21.61;31.25;98499.59;5071816;28;1194;-88
2021/04/24 03:59:02;;;;;;;;;;;;;;;21.61;31.24;98502.41;5068442;28;1196;-83
2021/04/24 04:01:30;;;;;;;;;;;;;;;21.44;31.65;98493.00;5082459;28;978;-85
2021/04/24 04:04:02;;;;;;;;;;;;;;;21.47;31.63;98497.00;5081749;28;823;-83
2021/04/24 04:06:28;;;;;;;;;;;;;;;21.53;31.39;98509.44;5083702;28;1963;-84
2021/04/24 04:08:53;;;;;;;;;;;;;;;21.62;31.09;98515.34;5082453;28;1280;-84
2021/04/24 04:11:19;;;;;;;;;;;;;;;21.66;31.26;98524.56;5082613;28;980;-84
2021/04/24 04:13:44;;;;;;;;;;;;;;;21.67;31.08;98523.34;5065508;28;1302;-84
2021/04/24 04:16:09;;;;;;;;;;;;;;;21.66;31.25;98520.91;5081962;28;942;-82
2021/04/24 04:18:38;;;;;;;;;;;;;;;21.58;31.39;98531.59;5081670;28;710;-82
2021/04/24 04:21:04;;;;;;;;;;;;;;;21.56;31.21;98534.06;5081614;28;906;-82
2021/04/24 04:23:29;;;;;;;;;;;;;;;21.50;31.43;98532.94;5081195;28;614;-84
2021/04/24 04:25:55;;;;;;;;;;;;;;;21.61;31.01;98536.41;5080912;28;1906;-80
2021/04/24 04:28:20;;;;;;;;;;;;;;;21.66;31.09;98538.75;5080118;28;899;-81
2021/04/24 04:30:46;;;;;;;;;;;;;;;21.74;30.97;98551.53;5081131;28;1099;-81
2021/04/24 04:33:12;;;;;;;;;;;;;;;21.56;31.04;98551.06;5080403;28;1109;-81
2021/04/24 04:35:37;;;;;;;;;;;;;;;21.53;31.10;98551.91;5080599;28;1157;-81
2021/04/24 04:38:03;;;;;;;;;;;;;;;21.67;30.83;98562.19;5080351;28;709;-81
2021/04/24 04:40:28;;;;;;;;;;;;;;;21.63;30.70;98562.25;5080144;28;856;-81
2021/04/24 04:43:00;;;;;;;;;;;;;;;21.58;31.05;98559.91;5080057;28;939;-79
2021/04/24 04:45:26;;;;;;;;;;;;;;;21.55;30.73;98560.75;5080793;28;1914;-81
2021/04/24 04:47:51;;;;;;;;;;;;;;;21.54;30.91;98570.50;5079814;28;910;-81
2021/04/24 04:50:18;;;;;;;;;;;;;;;21.58;30.72;98571.25;5080277;28;602;-80
2021/04/24 04:52:43;;;;;;;;;;;;;;;21.61;30.41;98580.91;5079401;28;902;-80
2021/04/24 04:55:09;;;;;;;;;;;;;;;21.60;30.51;98591.41;5079395;28;1151;-81
2021/04/24 04:57:34;;;;;;;;;;;;;;;21.61;30.41;98581.72;5080384;28;848;-80
2021/04/24 05:00:00;;;;;;;;;;;;;;;21.64;30.51;98575.16;5079769;28;867;-81
2021/04/24 05:02:25;;;;;;;;;;;;;;;21.56;30.30;98580.16;5080673;28;662;-81
2021/04/24 05:04:51;;;;;;;;;;;;;;;21.54;30.77;98593.16;5080562;28;642;-81
2021/04/24 05:07:16;;;;;;;;;;;;;;;21.50;30.53;98581.91;5079873;28;1973;-80
2021/04/24 05:09:42;;;;;;;;;;;;;;;21.57;30.37;98595.13;5078582;28;1075;-80
2021/04/24 05:12:07;;;;;;;;;;;;;;;21.46;30.36;98591.69;5079363;28;879;-81
2021/04/24 05:14:33;;;;;;;;;;;;;;;21.49;30.32;98597.25;5079640;28;1209;-80
2021/04/24 05:16:58;;;;;;;;;;;;;;;21.56;30.39;98602.03;5079729;28;686;-82
2021/04/24 05:19:24;;;;;;;;;;;;;;;21.46;30.63;98603.00;5079739;28;618;-82
2021/04/24 05:21:49;;;;;;;;;;;;;;;21.40;30.76;98599.03;5080029;28;649;-82
2021/04/24 05:24:15;;;;;;;;;;;;;;;21.56;30.24;98596.38;5079653;28;874;-82
2021/04/24 05:26:40;;;;;;;;;;;;;;;21.59;30.26;98589.81;5079372;28;1901;-83
2021/04/24 05:29:05;;;;;;;;;;;;;;;21.53;30.38;98574.56;5079756;28;1011;-82
2021/04/24 05:31:31;;;;;;;;;;;;;;;21.46;30.41;98574.69;5080536;28;559;-82
2021/04/24 05:33:57;;;;;;;;;;;;;;;21.47;30.58;98573.47;5079616;28;1007;-81
2021/04/24 05:36:23;;;;;;;;;;;;;;;21.45;30.59;98579.56;5079942;28;687;-82
2021/04/24 05:38:49;;;;;;;;;;;;;;;21.52;30.27;98572.97;5079505;28;1189;-81
2021/04/24 05:41:20;;;;;;;;;;;;;;;21.60;30.12;98574.44;5079704;28;959;-81
2021/04/24 05:43:45;;;;;;;;;;;;;;;21.55;30.24;98577.75;5079533;28;1032;-82
2021/04/24 05:46:11;;;;;;;;;;;;;;;21.55;30.35;98566.41;5080372;28;1941;-82
2021/04/24 05:48:36;;;;;;;;;;;;;;;21.59;30.32;98570.78;5080028;28;679;-83
2021/04/24 05:51:02;;;;;;;;;;;;;;;21.63;30.04;98567.13;5079399;28;862;-82
2021/04/24 05:53:27;;;;;;;;;;;;;;;21.55;30.26;98572.09;5080287;28;989;-85
2021/04/24 05:55:53;;;;;;;;;;;;;;;21.45;30.47;98567.41;5083419;28;902;-85
2021/04/24 05:58:18;;;;;;;;;;;;;;;21.32;30.60;98565.19;5082966;28;1076;-86
2021/04/24 06:00:44;;;;;;;;;;;;;;;21.49;30.52;98579.47;5081588;28;800;-84
2021/04/24 06:03:09;;;;;;;;;;;;;;;21.51;30.11;98582.69;5065953;28;1138;-85
2021/04/24 06:05:35;;;;;;;;;;;;;;;21.55;30.42;98584.25;5082542;28;1890;-84
2021/04/24 06:08:00;;;;;;;;;;;;;;;21.58;29.99;98579.72;5081348;28;1011;-84
2021/04/24 06:10:26;;;;;;;;;;;;;;;21.62;30.20;98577.66;5065789;28;987;-83
2021/04/24 06:12:51;;;;;;;;;;;;;;;21.68;29.99;98586.44;5062192;28;976;-83
2021/04/24 06:15:18;;;;;;;;;;;;;;;21.55;30.12;98583.41;5044479;28;877;-82
2021/04/24 06:17:43;;;;;;;;;;;;;;;21.63;29.98;98579.25;5058825;28;857;-81
2021/04/24 06:20:09;;;;;;;;;;;;;;;21.91;30.54;98583.56;5057941;28;1188;-79
2021/04/24 06:22:35;;;;;;;;;;;;;;;22.18;30.58;98575.00;5057549;28;1384;-80
2021/04/24 06:25:00;;;;;;;;;;;;;;;22.36;30.68;98583.16;5041912;28;1423;-81
2021/04/24 06:27:26;;;;;;;;;;;;;;;22.02;30.63;98589.03;5058221;28;1977;-82
2021/04/24 06:29:52;;;;;;;;;;;;;;;21.91;30.93;98588.44;5042148;28;1448;-82
2021/04/24 06:32:18;;;;;;;;;;;;;;;21.71;30.66;98586.38;5059101;28;998;-82
2021/04/24 06:34:43;;;;;;;;;;;;;;;21.71;30.72;98588.41;5061155;28;1029;-85
2021/04/24 06:37:09;;;;;;;;;;;;;;;21.57;30.78;98587.44;5061485;28;951;-81
2021/04/24 06:39:34;;;;;;;;;;;;;;;21.59;30.98;98590.63;5059685;28;833;-83
2021/04/24 06:42:01;;;;;;;;;;;;;;;21.61;30.87;98593.03;5061684;28;1199;-83
2021/04/24 06:44:27;;;;;;;;;;;;;;;21.53;31.40;98585.88;5040467;28;1302;-83
2021/04/24 06:46:52;;;;;;;;;;;;;;;21.53;31.00;98591.56;5041249;28;2005;-83
2021/04/24 06:49:18;;;;;;;;;;;;;;;21.54;31.26;98598.81;5058269;28;1066;-81
2021/04/24 06:51:43;;;;;;;;;;;;;;;21.71;30.82;98589.22;5044560;28;871;-82
2021/04/24 06:54:09;;;;;;;;;;;;;;;21.59;30.99;98592.66;5062499;28;829;-82
2021/04/24 06:56:34;;;;;;;;;;;;;;;21.61;31.11;98584.53;5062553;28;1338;-81
2021/04/24 06:59:00;;;;;;;;;;;;;;;21.73;31.02;98595.25;5062641;28;888;-84
2021/04/24 07:01:25;;;;;;;;;;;;;;;21.52;31.28;98590.75;5042850;28;1230;-81
2021/04/24 07:03:51;;;;;;;;;;;;;;;21.57;31.25;98586.63;5046495;28;926;-81
2021/04/24 07:06:16;;;;;;;;;;;;;;;21.54;31.19;98578.97;5061925;28;1973;-80
2021/04/24 07:08:42;;;;;;;;;;;;;;;21.51;31.08;98582.69;5062601;28;977;-85
2021/04/24 07:11:07;;;;;;;;;;;;;;;21.46;31.15;98591.69;5066461;28;837;-84
2021/04/24 07:13:33;;;;;;;;;;;;;;;21.43;31.42;98586.88;5064110;28;1177;-83
2021/04/24 07:16:02;;;;;;;;;;;;;;;21.55;31.11;98583.41;5062525;28;1145;-83
2021/04/24 07:18:29;;;;;;;;;;;;;;;21.45;31.00;98578.72;5062340;28;875;-81
2021/04/24 07:20:54;;;;;;;;;;;;;;;21.58;30.84;98582.56;5062252;28;882;-81
2021/04/24 07:23:20;;;;;;;;;;;;;;;21.56;30.83;98579.38;5061327;28;1178;-81
2021/04/24 07:25:45;;;;;;;;;;;;;;;21.63;30.68;98578.44;5061271;28;1898;-81
2021/04/24 07:28:11;;;;;;;;;;;;;;;21.47;31.12;98564.97;5061443;28;760;-81
2021/04/24 07:30:36;;;;;;;;;;;;;;;21.44;30.87;98583.59;5060350;28;872;-81
2021/04/24 07:33:02;;;;;;;;;;;;;;;21.53;30.93;98585.88;5060035;28;1027;-79
2021/04/24 07:35:27;;;;;;;;;;;;;;;21.93;31.31;98591.66;5061402;28;916;-79
2021/04/24 07:37:53;;;;;;;;;;;;;;;22.17;30.91;98596.06;5061925;28;802;-81
2021/04/24 07:40:18;;;;;;;;;;;;;;;22.41;30.76;98593.19;5061154;28;882;-81
2021/04/24 07:42:44;;;;;;;;;;;;;;;22.03;30.97;98590.66;5060584;28;931;-80
2021/04/24 07:45:10;;;;;;;;;;;;;;;21.77;31.02;98590.31;5061807;28;741;-81
2021/04/24 07:47:35;;;;;;;;;;;;;;;21.72;31.07;98599.31;5061545;28;1909;-82
2021/04/24 07:50:01;;;;;;;;;;;;;;;21.61;31.00;98598.69;5060639;28;874;-80
2021/04/24 07:52:26;;;;;;;;;;;;;;;21.67;30.94;98596.97;5061026;28;960;-81
2021/04/24 07:54:51;;;;;;;;;;;;;;;21.66;30.94;98589.72;5060809;28;873;-82
2021/04/24 07:57:17;;;;;;;;;;;;;;;21.53;31.24;98597.22;5060899;28;880;-82
2021/04/24 07:59:43;;;;;;;;;;;;;;;21.55;31.14;98629.53;5060987;28;654;-83
2021/04/24 08:02:09;;;;;;;;;;;;;;;21.64;30.97;98597.03;5044109;28;1301;-83
2021/04/24 08:04:34;;;;;;;;;;;;;;;21.61;31.15;98592.25;5061561;28;892;-82
2021/04/24 08:07:01;;;;;;;;;;;;;;;21.57;31.31;98597.97;5061977;28;1906;-83
2021/04/24 08:09:27;;;;;;;;;;;;;;;21.61;31.24;98593.03;5062135;28;840;-81
2021/04/24 08:11:52;;;;;;;;;;;;;;;21.66;31.13;98600.22;5060093;28;1085;-80
2021/04/24 08:14:18;;;;;;;;;;;;;;;21.64;31.30;98603.50;5060690;28;840;-82
2021/04/24 08:16:43;;;;;;;;;;;;;;;21.71;31.07;98602.56;5062224;28;894;-81
2021/04/24 08:19:09;;;;;;;;;;;;;;;21.65;30.91;98602.25;5060269;28;908;-81
2021/04/24 08:21:34;;;;;;;;;;;;;;;21.49;31.09;98605.75;5044836;28;929;-83
2021/04/24 08:24:00;;;;;;;;;;;;;;;21.47;31.37;98598.94;5061174;28;904;-82
2021/04/24 08:26:29;;;;;;;;;;;;;;;21.45;31.43;98590.06;5061197;28;1983;-82
2021/04/24 08:28:55;;;;;;;;;;;;;;;21.57;31.02;98597.97;5060804;28;852;-84
2021/04/24 08:31:20;;;;;;;;;;;;;;;21.51;31.29;98594.03;5046940;28;1326;-83
2021/04/24 08:33:46;;;;;;;;;;;;;;;21.46;31.24;98594.50;5061748;28;962;-84
2021/04/24 08:36:11;;;;;;;;;;;;;;;21.53;31.37;98592.34;5062611;28;881;-82
2021/04/24 08:38:37;;;;;;;;;;;;;;;21.65;31.02;98587.28;5044764;28;885;-84
2021/04/24 08:41:03;;;;;;;;;;;;;;;21.49;31.00;98585.13;5063450;28;828;-83
2021/04/24 08:43:28;;;;;;;;;;;;;;;21.52;31.17;98585.09;5061136;28;849;-83
2021/04/24 08:45:54;;;;;;;;;;;;;;;21.50;31.01;98587.56;5062343;28;1909;-84
2021/04/24 08:48:19;;;;;;;;;;;;;;;21.40;31.11;98593.38;5060850;28;976;-82
2021/04/24 08:50:45;;;;;;;;;;;;;;;21.50;30.89;98592.41;5045856;28;1256;-84
2021/04/24 08:53:10;;;;;;;;;;;;;;;21.53;30.76;98589.50;5043490;28;1202;-80
2021/04/24 08:55:36;;;;;;;;;;;;;;;21.49;30.80;98590.81;5060863;28;821;-82
2021/04/24 08:58:03;;;;;;;;;;;;;;;21.45;30.82;98584.38;5059906;28;828;-81
2021/04/24 09:00:30;;;;;;;;;;;;;;;21.47;30.90;98585.59;5059393;28;971;-80
2021/04/24 09:02:56;;;;;;;;;;;;;;;21.54;30.63;98581.81;5059147;28;944;-83
2021/04/24 09:05:21;;;;;;;;;;;;;;;21.44;31.02;98577.94;5061220;28;1887;-83
2021/04/24 09:07:47;;;;;;;;;;;;;;;21.61;30.43;98581.72;5060872;28;949;-84
2021/04/24 09:10:16;;;;;;;;;;;;;;;21.52;30.71;98578.63;5060082;28;1332;-82
2021/04/24 09:12:41;;;;;;;;;;;;;;;21.47;30.75;98570.63;5061398;28;828;-82
2021/04/24 09:15:20;;;;;;;;;;;;;;;21.61;30.48;98570.38;5059999;28;1005;-82
2021/04/24 09:17:46;;;;;;;;;;;;;;;21.40;31.09;98570.72;5060945;28;929;-83
2021/04/24 09:20:12;;;;;;;;;;;;;;;21.52;30.58;98561.63;5063009;28;642;-83
2021/04/24 09:22:38;;;;;;;;;;;;;;;21.47;30.90;98554.44;5061413;28;853;-84
2021/04/24 09:25:03;;;;;;;;;;;;;;;21.63;30.36;98555.78;5062062;28;880;-83
2021/04/24 09:27:45;;;;;;;;;;;;;;;21.49;30.82;98545.50;5061112;28;1918;-83
2021/04/24 09:30:21;;;;;;;;;;;;;;;21.53;30.77;98541.38;5060187;28;877;-83
2021/04/24 09:32:47;;;;;;;;;;;;;;;21.61;30.34;98542.06;5060388;28;1115;-82
2021/04/24 09:35:14;;;;;;;;;;;;;;;21.52;30.79;98539.00;5042883;28;943;-81
2021/04/24 09:37:39;;;;;;;;;;;;;;;21.56;30.72;98539.72;5059352;28;682;-80
2021/04/24 09:40:09;;;;;;;;;;;;;;;21.50;30.46;98535.78;5059219;28;1011;-81
2021/04/24 09:42:40;;;;;;;;;;;;;;;21.56;30.46;98528.41;5060333;28;611;-80
2021/04/24 09:45:26;;;;;;;;;;;;;;;21.46;30.66;98520.91;5059645;28;868;-83
2021/04/24 09:47:52;;;;;;;;;;;;;;;21.46;30.85;98524.53;5061169;28;931;-84
2021/04/24 09:50:36;;;;;;;;;;;;;;;21.51;30.39;98520.41;5062024;28;670;-84
2021/04/24 09:53:19;;;;;;;;;;;;;;;21.50;30.51;98518.78;5062219;28;833;-84
2021/04/24 09:55:45;;;;;;;;;;;;;;;21.47;30.51;98516.84;5062657;28;935;-84
2021/04/24 09:58:27;;;;;;;;;;;;;;;21.45;30.54;98516.44;5060731;28;879;-84
2021/04/24 10:00:52;;;;;;;;;;;;;;;21.57;30.44;98505.31;5062319;28;1184;-84
2021/04/24 10:03:37;;;;;;;;;;;;;;;22.03;30.74;98503.63;5060386;28;1051;-84
2021/04/24 10:06:21;;;;;;;;;;;;;;;22.30;30.50;98506.31;5060766;28;1975;-83
2021/04/24 10:08:47;;;;;;;;;;;;;;;22.35;30.94;98510.69;5059123;28;694;-81
2021/04/24 10:11:25;;;;;;;;;;;;;;;22.02;30.67;98499.19;5059725;28;929;-81
2021/04/24 10:13:51;;;;;;;;;;;;;;;21.71;30.96;98507.09;5059302;28;650;-82
2021/04/24 10:16:35;;;;;;;;;;;;;;;21.69;31.00;98491.75;5060836;28;999;-81
2021/04/24 10:19:01;;;;;;;;;;;;;;;21.60;30.90;98495.13;5060559;28;1141;-84
2021/04/24 10:21:26;;;;;;;;;;;;;;;21.57;31.09;98493.19;5060325;28;817;-83
2021/04/24 10:23:52;;;;;;;;;;;;;;;21.62;30.67;98492.69;5060042;28;634;-83
2021/04/24 10:26:17;;;;;;;;;;;;;;;21.63;30.75;98488.63;5061414;28;1901;-80
2021/04/24 10:28:43;;;;;;;;;;;;;;;21.58;31.06;98469.28;5062522;28;861;-79
2021/04/24 10:31:08;;;;;;;;;;;;;;;21.53;31.12;98484.75;5062586;28;889;-83
2021/04/24 10:33:34;;;;;;;;;;;;;;;21.55;30.95;98487.13;5044895;28;1287;-80
2021/04/24 10:35:59;;;;;;;;;;;;;;;21.54;31.00;98479.88;5062783;28;818;-80
2021/04/24 10:38:25;;;;;;;;;;;;;;;21.63;31.13;98471.63;5062970;28;832;-81
2021/04/24 10:40:50;;;;;;;;;;;;;;;21.54;31.33;98471.38;5062017;28;1000;-79
2021/04/24 10:43:19;;;;;;;;;;;;;;;21.50;31.04;98479.16;5062247;28;876;-79
2021/04/24 10:45:45;;;;;;;;;;;;;;;21.59;31.15;98474.50;5062798;28;1906;-82
2021/04/24 10:48:10;;;;;;;;;;;;;;;21.59;30.91;98470.88;5062759;28;912;-80
2021/04/24 10:50:39;;;;;;;;;;;;;;;21.68;31.01;98467.50;5062381;28;1268;-80
2021/04/24 10:53:16;;;;;;;;;;;;;;;21.61;30.79;98468.44;5064480;28;817;-84
2021/04/24 10:55:42;;;;;;;;;;;;;;;21.67;30.67;98465.91;5064599;28;655;-82
2021/04/24 10:58:07;;;;;;;;;;;;;;;21.63;30.85;98460.31;5062013;28;996;-83
2021/04/24 11:00:36;;;;;;;;;;;;;;;21.50;31.21;98450.84;5045969;28;1051;-82
2021/04/24 11:03:01;;;;;;;;;;;;;;;21.52;31.08;98454.84;5062712;28;980;-81
2021/04/24 11:05:28;;;;;;;;;;;;;;;21.50;31.11;98456.50;5062825;28;1906;-83
2021/04/24 11:08:11;;;;;;;;;;;;;;;21.65;30.40;98463.47;5063302;28;665;-83
2021/04/24 11:10:46;;;;;;;;;;;;;;;21.55;30.88;98458.81;5062842;28;943;-82
2021/04/24 11:13:12;;;;;;;;;;;;;;;21.62;30.53;98453.03;5062146;28;800;-81
2021/04/24 11:15:38;;;;;;;;;;;;;;;21.49;30.68;98457.72;5061742;28;940;-83
2021/04/24 11:18:04;;;;;;;;;;;;;;;21.42;31.12;98460.72;5062587;28;1003;-82
2021/04/24 11:20:48;;;;;;;;;;;;;;;21.44;30.89;98452.56;5045943;28;1272;-83
2021/04/24 11:23:32;;;;;;;;;;;;;;;21.45;31.13;98459.81;5073099;28;875;-80
2021/04/24 11:25:58;;;;;;;;;;;;;;;21.45;30.82;98465.50;5062623;28;2018;-81
2021/04/24 11:28:23;;;;;;;;;;;;;;;21.51;30.85;98470.25;5060321;28;859;-82
2021/04/24 11:31:04;;;;;;;;;;;;;;;21.59;30.47;98471.69;5061632;28;919;-79
2021/04/24 11:33:29;;;;;;;;;;;;;;;21.53;30.85;98472.63;5061572;28;954;-81
2021/04/24 11:36:09;;;;;;;;;;;;;;;21.55;30.56;98464.50;5061879;28;847;-82
2021/04/24 11:38:53;;;;;;;;;;;;;;;21.51;30.64;98469.44;5061284;28;1209;-82
2021/04/24 11:41:34;;;;;;;;;;;;;;;21.44;30.77;98469.56;5062238;28;683;-79
2021/04/24 11:44:17;;;;;;;;;;;;;;;21.60;30.73;98466.81;5060386;28;999;-81
2021/04/24 11:46:46;;;;;;;;;;;;;;;21.95;30.84;98464.50;5061693;28;1979;-81
2021/04/24 11:49:12;;;;;;;;;;;;;;;22.18;30.61;98461.63;5060390;28;849;-81
2021/04/24 11:51:38;;;;;;;;;;;;;;;22.29;30.92;98456.53;5060982;28;849;-82
2021/04/24 11:54:04;;;;;;;;;;;;;;;22.43;30.96;98465.94;5061232;28;879;-81
2021/04/24 11:56:30;;;;;;;;;;;;;;;22.04;31.05;98456.22;5061193;28;674;-80
2021/04/24 11:58:55;;;;;;;;;;;;;;;21.71;31.05;98460.94;5060208;28;839;-81
2021/04/24 12:01:24;;;;;;;;;;;;;;;21.74;31.26;98458.06;5059836;28;891;-80
2021/04/24 12:03:50;;;;;;;;;;;;;;;21.72;31.10;98468.22;5060314;28;1093;-81
2021/04/24 12:06:34;;;;;;;;;;;;;;;21.67;31.28;98444.03;5060969;28;1898;-80
2021/04/24 12:09:00;;;;;;;;;;;;;;;21.55;31.36;98456.00;5061340;28;856;-82
2021/04/24 12:11:25;;;;;;;;;;;;;;;21.66;31.19;98448.13;5061784;28;606;-82
2021/04/24 12:13:51;;;;;;;;;;;;;;;21.62;31.22;98453.03;5060050;28;1021;-83
2021/04/24 12:16:17;;;;;;;;;;;;;;;21.62;30.96;98440.91;5060695;28;907;-80
2021/04/24 12:18:42;;;;;;;;;;;;;;;21.61;31.09;98451.44;5059841;28;943;-83
2021/04/24 12:21:07;;;;;;;;;;;;;;;21.66;31.30;98442.44;5061078;28;687;-82
2021/04/24 12:23:33;;;;;;;;;;;;;;;21.56;31.10;98446.28;5059946;28;899;-82
2021/04/24 12:25:58;;;;;;;;;;;;;;;21.61;31.14;98434.47;5061406;28;1910;-82
2021/04/24 12:28:26;;;;;;;;;;;;;;;21.56;31.09;98432.13;5045053;28;1198;-85
2021/04/24 12:30:52;;;;;;;;;;;;;;;21.64;31.06;98427.91;5063558;28;876;-85
2021/04/24 12:33:22;;;;;;;;;;;;;;;21.57;31.02;98422.41;5043584;28;1228;-85
2021/04/24 12:35:52;;;;;;;;;;;;;;;21.55;30.91;98413.53;5045588;28;1196;-85
2021/04/24 12:38:19;;;;;;;;;;;;;;;21.70;30.79;98417.66;5043564;28;1176;-84
2021/04/24 12:40:52;;;;;;;;;;;;;;;21.71;30.86;98424.13;5045016;28;1157;-81
2021/04/24 12:43:46;;;;;;;;;;;;;;;21.52;31.00;98403.09;5042961;28;1170;-79
2021/04/24 12:46:11;;;;;;;;;;;;;;;21.54;31.23;98403.44;5059931;28;1975;-80
2021/04/24 12:48:44;;;;;;;;;;;;;;;21.60;30.81;98404.53;5059432;28;863;-82
2021/04/24 12:51:13;;;;;;;;;;;;;;;21.65;30.67;98401.19;5061052;28;848;-84
2021/04/24 12:53:41;;;;;;;;;;;;;;;21.63;30.87;98398.00;5061321;28;861;-84
2021/04/24 12:56:29;;;;;;;;;;;;;;;21.76;30.63;98396.13;5046902;28;1151;-85
2021/04/24 12:58:55;;;;;;;;;;;;;;;22.07;31.42;98399.50;5063902;28;880;-87
2021/04/24 13:01:21;;;;;;;;;;;;;;;22.17;31.32;98389.16;5064550;28;1310;-85
2021/04/24 13:03:47;;;;;;;;;;;;;;;22.39;31.11;98386.66;5061797;28;833;-84